createdAt,value
2023-03-21T00:01:03.850Z,97359.09
2023-03-21T00:06:11.690Z,97357.09
2023-03-21T00:11:14.412Z,97357.25
2023-03-21T00:16:21.406Z,97346.06
2023-03-21T00:21:46.508Z,97345.47
2023-03-21T00:26:53.977Z,97346.16
2023-03-21T00:31:56.700Z,97349.94
2023-03-21T00:37:01.560Z,97344.97
2023-03-21T00:42:03.918Z,97342.97
2023-03-21T00:47:08.199Z,97345.69
2023-03-21T00:52:30.570Z,97328.94
2023-03-21T00:57:39.005Z,97331.59
2023-03-21T01:03:02.528Z,97330.28
2023-03-21T01:08:20.638Z,97329.28
2023-03-21T01:13:25.918Z,97326.09
2023-03-21T01:18:29.979Z,97317.09
2023-03-21T01:23:31.671Z,97318.72
2023-03-21T01:28:34.382Z,97324.38
2023-03-21T01:33:36.208Z,97329.31
2023-03-21T01:38:38.089Z,97322.22
2023-03-21T01:43:40.713Z,97328.38
2023-03-21T01:48:44.297Z,97318.31
2023-03-21T01:53:47.482Z,97320.63
2023-03-21T01:58:50.944Z,97315.38
2023-03-21T02:04:04.968Z,97302.00
2023-03-21T02:09:31.826Z,97300.81
2023-03-21T02:14:36.088Z,97297.91
2023-03-21T02:20:17.621Z,97295.19
2023-03-21T02:25:22.080Z,97287.25
2023-03-21T02:30:56.408Z,97291.56
2023-03-21T02:36:34.128Z,97285.47
2023-03-21T02:41:40.634Z,97277.53
2023-03-21T02:46:51.236Z,97285.47
2023-03-21T02:52:08.737Z,97288.44
2023-03-21T02:57:19.286Z,97281.97
2023-03-21T03:02:26.212Z,97288.28
2023-03-21T03:07:52.273Z,97282.81
2023-03-21T03:13:09.325Z,97286.13
2023-03-21T03:18:18.748Z,97280.66
2023-03-21T03:23:30.614Z,97270.56
2023-03-21T03:28:38.040Z,97270.25
2023-03-21T03:33:48.238Z,97271.06
2023-03-21T03:38:51.662Z,97268.09
2023-03-21T03:43:57.869Z,97259.97
2023-03-21T03:49:10.196Z,97266.88
2023-03-21T03:54:21.079Z,97261.94
2023-03-21T03:59:25.122Z,97262.69
2023-03-21T04:04:38.247Z,97277.69
2023-03-21T04:09:44.826Z,97270.88
2023-03-21T04:14:49.995Z,97270.38
2023-03-21T04:19:59.969Z,97268.22
2023-03-21T04:25:08.025Z,97263.78
2023-03-21T04:30:12.118Z,97274.03
2023-03-21T04:35:37.754Z,97269.75
2023-03-21T04:40:40.509Z,97269.94
2023-03-21T04:45:42.792Z,97263.09
2023-03-21T04:50:44.850Z,97265.31
2023-03-21T04:55:46.778Z,97258.50
2023-03-21T05:00:48.508Z,97259.66
2023-03-21T05:05:50.808Z,97271.06
2023-03-21T05:10:53.966Z,97272.41
2023-03-21T05:15:56.592Z,97274.25
2023-03-21T05:20:58.413Z,97272.91
2023-03-21T05:26:00.976Z,97277.03
2023-03-21T05:31:16.792Z,97278.44
2023-03-21T05:36:20.541Z,97276.84
2023-03-21T05:41:22.581Z,97279.31
2023-03-21T05:46:24.673Z,97274.19
2023-03-21T05:51:26.846Z,97276.97
2023-03-21T05:56:28.623Z,97290.69
2023-03-21T06:01:39.662Z,97289.69
2023-03-21T06:06:46.956Z,97288.03
2023-03-21T06:11:52.087Z,97291.97
2023-03-21T06:17:02.555Z,97293.22
2023-03-21T06:22:06.036Z,97297.72
2023-03-21T06:27:11.295Z,97295.56
2023-03-21T06:32:24.947Z,97283.88
2023-03-21T06:37:32.244Z,97294.03
2023-03-21T06:42:34.205Z,97295.16
2023-03-21T06:47:43.263Z,97289.44
2023-03-21T06:52:54.668Z,97295.75
2023-03-21T06:57:57.486Z,97303.00
2023-03-21T07:03:02.265Z,97298.72
2023-03-21T07:08:06.180Z,97287.31
2023-03-21T07:13:10.448Z,97299.72
2023-03-21T07:18:17.528Z,97291.38
2023-03-21T07:23:25.220Z,97292.78
2023-03-21T07:28:31.901Z,97292.03
2023-03-21T07:33:34.059Z,97291.91
2023-03-21T07:38:36.471Z,97292.28
2023-03-21T07:43:39.427Z,97286.06
2023-03-21T07:48:44.553Z,97293.53
2023-03-21T07:53:48.678Z,97290.88
2023-03-21T07:58:50.832Z,97295.00
2023-03-21T08:03:53.692Z,97297.00
2023-03-21T08:08:55.387Z,97298.38
2023-03-21T08:14:01.535Z,97292.09
2023-03-21T08:19:03.474Z,97294.34
2023-03-21T08:24:07.065Z,97293.84
2023-03-21T08:29:09.105Z,97294.44
2023-03-21T08:34:10.905Z,97286.78
2023-03-21T08:39:12.797Z,97276.91
2023-03-21T08:44:17.315Z,97283.53
2023-03-21T08:49:20.053Z,97291.78
2023-03-21T08:54:22.672Z,97283.28
2023-03-21T08:59:24.313Z,97269.56
2023-03-21T09:04:26.191Z,97264.88
2023-03-21T09:09:29.021Z,97264.91
2023-03-21T09:14:30.760Z,97274.75
2023-03-21T09:19:32.507Z,97272.53
2023-03-21T09:24:34.434Z,97268.38
2023-03-21T09:29:36.460Z,97273.03
2023-03-21T09:34:41.170Z,97264.81
2023-03-21T09:39:44.794Z,97260.06
2023-03-21T09:45:17.790Z,97255.63
2023-03-21T09:50:27.219Z,97252.84
2023-03-21T09:55:36.641Z,97242.06
2023-03-21T10:00:46.507Z,97240.44
2023-03-21T10:05:49.024Z,97241.56
2023-03-21T10:10:59.364Z,97236.63
2023-03-21T10:16:10.896Z,97239.06
2023-03-21T10:21:47.413Z,97231.00
2023-03-21T10:26:44.787Z,97213.31
2023-03-21T10:31:47.350Z,97208.19
2023-03-21T10:36:49.399Z,97208.56
2023-03-21T10:41:51.343Z,97205.59
2023-03-21T10:46:58.882Z,97201.31
2023-03-21T10:52:08.823Z,97201.56
2023-03-21T10:57:21.740Z,97195.34
2023-03-21T11:02:35.960Z,97191.00
2023-03-21T11:07:38.059Z,97183.28
2023-03-21T11:12:41.425Z,97174.59
2023-03-21T11:17:45.320Z,97172.53
2023-03-21T11:22:48.611Z,97161.97
2023-03-21T11:27:53.790Z,97167.63
2023-03-21T11:32:58.140Z,97164.41
2023-03-21T11:38:00.014Z,97148.94
2023-03-21T11:43:24.862Z,97148.38
2023-03-21T11:48:27.546Z,97137.19
2023-03-21T11:53:40.467Z,97132.44
2023-03-21T11:59:13.571Z,97116.03
2023-03-21T12:04:18.640Z,97113.44
2023-03-21T12:09:37.329Z,97110.31
2023-03-21T12:14:59.258Z,97106.78
2023-03-21T12:20:30.365Z,97094.03
2023-03-21T12:25:42.616Z,97085.22
2023-03-21T12:31:05.893Z,97086.63
2023-03-21T12:36:38.273Z,97076.13
2023-03-21T12:41:49.132Z,97066.84
2023-03-21T12:46:58.253Z,97067.06
2023-03-21T12:52:06.508Z,97063.69
2023-03-21T12:57:23.327Z,97060.63
2023-03-21T13:02:31.623Z,97056.47
2023-03-21T13:07:38.097Z,97045.34
2023-03-21T13:13:00.828Z,97030.38
2023-03-21T13:18:21.054Z,97028.94
2023-03-21T13:23:25.275Z,97025.91
2023-03-21T13:28:35.720Z,97016.88
2023-03-21T13:33:44.566Z,97009.84
2023-03-21T13:38:51.681Z,97002.38
2023-03-21T13:43:55.844Z,96997.72
2023-03-21T13:49:00.697Z,96994.09
2023-03-21T13:54:08.253Z,96990.78
2023-03-21T13:59:11.191Z,96987.81
2023-03-21T14:04:24.149Z,96981.72
2023-03-21T14:09:41.712Z,96986.06
2023-03-21T14:14:51.201Z,96980.34
2023-03-21T14:19:54.931Z,96965.50
2023-03-21T14:24:59.767Z,96969.50
2023-03-21T14:30:03.280Z,96964.56
2023-03-21T14:35:11.680Z,96956.34
2023-03-21T14:40:22.607Z,96948.72
2023-03-21T14:45:27.926Z,96947.34
2023-03-21T14:50:49.060Z,96941.66
2023-03-21T14:56:01.995Z,96950.81
2023-03-21T15:01:05.185Z,96950.03
2023-03-21T15:06:11.035Z,96948.50
2023-03-21T15:11:13.050Z,96951.78
2023-03-21T15:16:15.313Z,96956.09
2023-03-21T15:21:24.694Z,96941.72
2023-03-21T15:26:27.301Z,96945.72
2023-03-21T15:31:34.264Z,96942.44
2023-03-21T15:36:43.754Z,96940.91
2023-03-21T15:42:23.307Z,96925.09
2023-03-21T15:48:02.330Z,96920.34
2023-03-21T15:53:16.085Z,96928.66
2023-03-21T15:58:23.936Z,96928.59
2023-03-21T16:03:27.237Z,96923.97
2023-03-21T16:08:36.890Z,96926.97
2023-03-21T16:13:38.806Z,96933.72
2023-03-21T16:18:40.452Z,96931.03
2023-03-21T16:23:42.248Z,96923.69
2023-03-21T16:28:47.165Z,96929.00
2023-03-21T16:33:49.080Z,96925.75
2023-03-21T16:38:55.128Z,96933.09
2023-03-21T16:43:56.796Z,96935.22
2023-03-21T16:48:58.740Z,96941.63
2023-03-21T16:54:01.115Z,96943.53
2023-03-21T16:59:03.234Z,96940.59
2023-03-21T17:04:08.595Z,96951.09
2023-03-21T17:09:13.290Z,96951.41
2023-03-21T17:14:21.057Z,96950.78
2023-03-21T17:19:27.870Z,96952.72
2023-03-21T17:24:29.713Z,96956.00
2023-03-21T17:29:31.570Z,96965.47
2023-03-21T17:34:33.649Z,96955.13
2023-03-21T17:39:35.577Z,96954.47
2023-03-21T17:44:37.230Z,96955.53
2023-03-21T17:49:39.173Z,96948.06
2023-03-21T17:54:41.577Z,96954.25
2023-03-21T17:59:43.580Z,96966.72
2023-03-21T18:04:45.450Z,96967.59
2023-03-21T18:09:47.343Z,96967.69
2023-03-21T18:14:49.486Z,96959.00
2023-03-21T18:19:51.283Z,96961.81
2023-03-21T18:24:53.473Z,96967.38
2023-03-21T18:30:25.692Z,96970.97
2023-03-21T18:35:19.723Z,96978.91
2023-03-21T18:40:24.043Z,96977.56
2023-03-21T18:45:26.696Z,96968.59
2023-03-21T18:50:28.562Z,96975.31
2023-03-21T18:55:45.083Z,96981.13
2023-03-21T19:00:50.098Z,96981.47
2023-03-21T19:05:51.956Z,96984.81
2023-03-21T19:10:54.020Z,96987.56
2023-03-21T19:15:56.315Z,96989.75
2023-03-21T19:21:00.805Z,96992.50
2023-03-21T19:26:02.709Z,96998.63
2023-03-21T19:31:06.135Z,96987.72
2023-03-21T19:36:17.913Z,96999.88
2023-03-21T19:41:23.332Z,96997.16
2023-03-21T19:46:26.382Z,96991.41
2023-03-21T19:51:30.015Z,96988.44
2023-03-21T19:56:34.577Z,96994.50
2023-03-21T20:01:36.923Z,96989.63
2023-03-21T20:06:38.996Z,96993.72
2023-03-21T20:11:40.790Z,96998.13
2023-03-21T20:16:43.727Z,97000.03
2023-03-21T20:21:53.084Z,96997.03
2023-03-21T20:26:58.281Z,96999.53
2023-03-21T20:32:00.061Z,97003.94
2023-03-21T20:37:03.170Z,97007.50
2023-03-21T20:42:05.533Z,97004.22
2023-03-21T20:47:08.263Z,96987.53
2023-03-21T20:57:32.600Z,96991.09
2023-03-21T21:02:34.473Z,97000.69
2023-03-21T21:07:36.076Z,96993.53
2023-03-21T21:12:39.437Z,96994.91
2023-03-21T21:23:04.458Z,97008.91
2023-03-21T21:28:09.441Z,97002.31
2023-03-21T21:33:11.415Z,97002.31
2023-03-21T21:38:19.213Z,96987.53
2023-03-21T21:43:21.187Z,96981.25
2023-03-21T21:48:23.406Z,96977.41
2023-03-21T21:53:28.174Z,96979.31
2023-03-21T21:58:33.783Z,96982.63
2023-03-21T22:03:41.642Z,96984.00
2023-03-21T22:08:46.852Z,96972.78
2023-03-21T22:13:49.043Z,96980.94
2023-03-21T22:18:50.748Z,96978.22
2023-03-21T22:23:52.418Z,96971.91
2023-03-21T22:28:54.109Z,96979.31
2023-03-21T22:33:55.985Z,96984.78
2023-03-21T22:38:57.994Z,96999.56
2023-03-21T22:43:59.749Z,97001.22
2023-03-21T22:49:01.893Z,96994.63
2023-03-21T22:54:03.768Z,96995.72
2023-03-21T22:59:05.628Z,96988.06
2023-03-21T23:04:07.579Z,96988.56
2023-03-21T23:09:10.125Z,96985.31
2023-03-21T23:14:15.144Z,96978.75
2023-03-21T23:19:17.382Z,96981.47
2023-03-21T23:24:19.109Z,96992.72
2023-03-21T23:29:20.885Z,96990.28
2023-03-21T23:34:22.680Z,96984.25
2023-03-21T23:39:24.521Z,96973.56
2023-03-21T23:44:27.399Z,96974.91
2023-03-21T23:49:33.309Z,96962.84
2023-03-21T23:54:35.181Z,96964.75
2023-03-21T23:59:36.884Z,96969.44
